Time;durP1;ratioP1;P1;durP2;ratioP2;P2;SDS_P1;SDS_P2;PMS_P1;PMS_P2;Temp;Humidity;BMP_temperature;BMP_pressure;BME280_temperature;BME280_humidity;BME280_pressure;Samples;Min_cycle;Max_cycle;Signal;HPM_P1;HPM_P2
2020/12/29 00:00:28;;;;;;;9.07;6.30;;;;;;;;;;5093238;28;20119;-77
2020/12/29 00:02:53;;;;;;;14.35;8.07;;;;;;;;;;5093503;28;20075;-77
2020/12/29 00:05:19;;;;;;;10.15;6.55;;;;;;;;;;5093097;28;20043;-77
2020/12/29 00:07:53;;;;;;;11.38;6.35;;;;;;;;;;5091143;28;20064;-77
2020/12/29 00:10:22;;;;;;;9.60;6.78;;;;;;;;;;5093249;28;20060;-77
2020/12/29 00:12:48;;;;;;;8.35;5.55;;;;;;;;;;5091980;28;20039;-77
2020/12/29 00:15:14;;;;;;;9.13;6.68;;;;;;;;;;5093185;28;20040;-77
2020/12/29 00:17:39;;;;;;;7.50;5.80;;;;;;;;;;5093044;28;20127;-77
2020/12/29 00:20:04;;;;;;;9.48;6.30;;;;;;;;;;5093155;28;20039;-77
2020/12/29 00:22:31;;;;;;;9.73;6.15;;;;;;;;;;5092961;28;20040;-77
2020/12/29 00:24:56;;;;;;;9.63;5.97;;;;;;;;;;5091718;28;20039;-77
2020/12/29 00:27:22;;;;;;;7.28;5.78;;;;;;;;;;5093069;28;20178;-77
2020/12/29 00:29:47;;;;;;;9.75;6.68;;;;;;;;;;5106153;28;20059;-77
2020/12/29 00:32:12;;;;;;;8.00;5.88;;;;;;;;;;5113265;28;20119;-77
2020/12/29 00:34:38;;;;;;;8.73;5.65;;;;;;;;;;5112116;28;20032;-77
2020/12/29 00:37:03;;;;;;;8.82;5.88;;;;;;;;;;5113254;28;20043;-77
2020/12/29 00:39:28;;;;;;;7.80;5.75;;;;;;;;;;5104947;28;20020;-77
2020/12/29 00:41:55;;;;;;;7.97;5.53;;;;;;;;;;5092747;28;20039;-77
2020/12/29 00:44:20;;;;;;;8.73;5.53;;;;;;;;;;5096339;28;20112;-77
2020/12/29 00:46:46;;;;;;;12.73;5.43;;;;;;;;;;5095616;28;20135;-77
2020/12/29 00:49:11;;;;;;;7.32;5.15;;;;;;;;;;5078694;28;20032;-77
2020/12/29 00:51:37;;;;;;;5.80;4.75;;;;;;;;;;5096715;28;20036;-77
2020/12/29 00:54:03;;;;;;;11.45;6.20;;;;;;;;;;5095279;28;20036;-77
2020/12/29 00:56:37;;;;;;;7.57;5.60;;;;;;;;;;5079238;28;20038;-77
2020/12/29 00:59:03;;;;;;;8.40;5.10;;;;;;;;;;5095149;28;20143;-76
2020/12/29 01:01:32;;;;;;;6.93;5.30;;;;;;;;;;5078880;28;20035;-75
2020/12/29 01:04:16;;;;;;;7.65;4.93;;;;;;;;;;5096502;28;20063;-75
2020/12/29 01:06:41;;;;;;;7.70;5.68;;;;;;;;;;5095095;28;20028;-76
2020/12/29 01:09:15;;;;;;;9.13;6.68;;;;;;;;;;5094715;28;20060;-76
2020/12/29 01:11:41;;;;;;;8.90;6.65;;;;;;;;;;5096488;28;20059;-76
2020/12/29 01:14:08;;;;;;;7.40;5.60;;;;;;;;;;5096380;28;20533;-75
2020/12/29 01:16:46;;;;;;;7.88;5.88;;;;;;;;;;5094716;28;20043;-76
2020/12/29 01:19:11;;;;;;;6.28;4.93;;;;;;;;;;5093775;28;20078;-76
2020/12/29 01:21:36;;;;;;;7.10;5.05;;;;;;;;;;5095984;28;20420;-75
2020/12/29 01:24:02;;;;;;;5.90;5.10;;;;;;;;;;5096079;28;20075;-75
2020/12/29 01:26:27;;;;;;;7.05;5.25;;;;;;;;;;5096267;28;20071;-76
2020/12/29 01:28:53;;;;;;;8.48;5.82;;;;;;;;;;5094738;28;20052;-76
2020/12/29 01:31:27;;;;;;;7.80;5.38;;;;;;;;;;5094690;28;20119;-76
2020/12/29 01:33:53;;;;;;;5.65;4.18;;;;;;;;;;5095410;28;20035;-76
2020/12/29 01:36:18;;;;;;;7.07;5.07;;;;;;;;;;5095753;28;20433;-76
2020/12/29 01:38:44;;;;;;;6.82;5.28;;;;;;;;;;5095656;28;20039;-76
2020/12/29 01:41:09;;;;;;;6.93;5.53;;;;;;;;;;5095711;28;20108;-75
2020/12/29 01:43:37;;;;;;;7.32;5.35;;;;;;;;;;5095409;28;20044;-75
2020/12/29 01:46:03;;;;;;;8.60;5.68;;;;;;;;;;5095690;28;20020;-76
2020/12/29 01:48:28;;;;;;;6.72;5.10;;;;;;;;;;5095534;28;20564;-76
2020/12/29 01:50:54;;;;;;;9.45;5.82;;;;;;;;;;5095516;28;20047;-76
2020/12/29 01:53:19;;;;;;;10.23;6.68;;;;;;;;;;5093770;28;20055;-76
2020/12/29 01:55:45;;;;;;;10.00;7.43;;;;;;;;;;5095427;28;20462;-76
2020/12/29 01:58:10;;;;;;;8.25;6.72;;;;;;;;;;5095419;28;20040;-76
2020/12/29 02:00:36;;;;;;;8.32;6.82;;;;;;;;;;5095167;28;20496;-76
2020/12/29 02:03:02;;;;;;;8.50;6.60;;;;;;;;;;5093943;28;20036;-76
2020/12/29 02:05:29;;;;;;;9.80;7.07;;;;;;;;;;5093162;28;20118;-76
2020/12/29 02:07:56;;;;;;;8.93;6.53;;;;;;;;;;5095294;28;20032;-75
2020/12/29 02:10:22;;;;;;;8.75;7.25;;;;;;;;;;5095211;28;20075;-76
2020/12/29 02:12:48;;;;;;;8.65;6.32;;;;;;;;;;5094981;28;20043;-76
2020/12/29 02:15:13;;;;;;;7.57;6.00;;;;;;;;;;5094966;28;20097;-76
2020/12/29 02:17:38;;;;;;;8.88;7.20;;;;;;;;;;5094835;28;20036;-75
2020/12/29 02:20:05;;;;;;;10.70;7.47;;;;;;;;;;5094980;28;20036;-76
2020/12/29 02:22:31;;;;;;;9.23;7.63;;;;;;;;;;5093589;28;20040;-76
2020/12/29 02:24:58;;;;;;;7.88;6.55;;;;;;;;;;5094091;28;20024;-76
2020/12/29 02:27:26;;;;;;;8.88;6.43;;;;;;;;;;5094900;28;20027;-75
2020/12/29 02:29:52;;;;;;;11.35;6.88;;;;;;;;;;5094633;28;20043;-76
2020/12/29 02:32:19;;;;;;;13.52;7.00;;;;;;;;;;5093620;28;20035;-76
2020/12/29 02:34:45;;;;;;;9.20;6.43;;;;;;;;;;5094483;28;20541;-76
2020/12/29 02:37:11;;;;;;;9.13;6.03;;;;;;;;;;5094757;28;20031;-76
2020/12/29 02:39:39;;;;;;;9.27;7.22;;;;;;;;;;5094763;28;20127;-75
2020/12/29 02:42:04;;;;;;;8.88;6.00;;;;;;;;;;5093445;28;20044;-75
2020/12/29 02:44:30;;;;;;;11.95;7.07;;;;;;;;;;5094369;28;20066;-76
2020/12/29 02:46:55;;;;;;;7.07;5.80;;;;;;;;;;5093114;28;20044;-75
2020/12/29 02:49:21;;;;;;;9.70;6.60;;;;;;;;;;5094258;28;20063;-76
2020/12/29 02:51:46;;;;;;;11.05;7.13;;;;;;;;;;5094397;28;20074;-75
2020/12/29 02:54:17;;;;;;;11.70;8.32;;;;;;;;;;5094239;28;20374;-75
2020/12/29 02:56:43;;;;;;;9.90;8.02;;;;;;;;;;5094360;28;20044;-75
2020/12/29 02:59:09;;;;;;;11.98;8.48;;;;;;;;;;5093695;28;20043;-75
2020/12/29 03:01:35;;;;;;;13.48;8.68;;;;;;;;;;5094033;28;20123;-75
2020/12/29 03:04:01;;;;;;;9.48;7.35;;;;;;;;;;5093940;28;20093;-76
2020/12/29 03:06:26;;;;;;;8.73;6.93;;;;;;;;;;5093399;28;20181;-76
2020/12/29 03:08:52;;;;;;;11.20;7.80;;;;;;;;;;5093837;28;20039;-75
2020/12/29 03:11:31;;;;;;;10.57;8.07;;;;;;;;;;5094110;28;20484;-75
2020/12/29 03:13:58;;;;;;;12.75;8.10;;;;;;;;;;5093973;28;20403;-75
2020/12/29 03:16:25;;;;;;;10.00;8.18;;;;;;;;;;5093734;28;20036;-75
2020/12/29 03:18:50;;;;;;;11.40;7.25;;;;;;;;;;5093886;28;20031;-75
2020/12/29 03:21:16;;;;;;;9.45;6.65;;;;;;;;;;5093939;28;20382;-76
2020/12/29 03:23:41;;;;;;;9.00;6.53;;;;;;;;;;5093778;28;20040;-76
2020/12/29 03:26:07;;;;;;;8.43;6.93;;;;;;;;;;5094034;28;20028;-76
2020/12/29 03:28:32;;;;;;;8.93;6.93;;;;;;;;;;5093465;28;20428;-76
2020/12/29 03:30:58;;;;;;;7.40;5.85;;;;;;;;;;5093714;28;20484;-76
2020/12/29 03:33:23;;;;;;;8.32;6.50;;;;;;;;;;5093697;28;20024;-76
2020/12/29 03:35:49;;;;;;;9.00;6.35;;;;;;;;;;5093546;28;20043;-76
2020/12/29 03:38:14;;;;;;;8.38;6.38;;;;;;;;;;5093533;28;20036;-76
2020/12/29 03:40:40;;;;;;;9.40;6.50;;;;;;;;;;5093484;28;20066;-76
2020/12/29 03:43:07;;;;;;;7.32;6.05;;;;;;;;;;5093491;28;20097;-76
2020/12/29 03:45:33;;;;;;;8.30;6.70;;;;;;;;;;5093365;28;20183;-76
2020/12/29 03:47:58;;;;;;;8.82;6.88;;;;;;;;;;5093305;28;20032;-75
2020/12/29 03:50:23;;;;;;;8.88;7.15;;;;;;;;;;5093316;28;20078;-75
2020/12/29 03:52:49;;;;;;;9.77;6.80;;;;;;;;;;5093554;28;20354;-76
2020/12/29 03:55:14;;;;;;;10.57;7.60;;;;;;;;;;5093399;28;20040;-76
2020/12/29 03:57:40;;;;;;;8.75;6.72;;;;;;;;;;5093295;28;20038;-76
2020/12/29 04:00:06;;;;;;;8.38;6.78;;;;;;;;;;5093333;28;20507;-76
2020/12/29 04:02:37;;;;;;;7.85;6.63;;;;;;;;;;5093146;28;20036;-76
2020/12/29 04:05:02;;;;;;;9.52;7.30;;;;;;;;;;5093362;28;20081;-76
2020/12/29 04:07:27;;;;;;;10.93;7.63;;;;;;;;;;5093328;28;20046;-76
2020/12/29 04:09:53;;;;;;;9.68;7.25;;;;;;;;;;5093205;28;20046;-75
2020/12/29 04:12:18;;;;;;;9.43;7.00;;;;;;;;;;5093311;28;20032;-76
2020/12/29 04:14:43;;;;;;;8.68;7.05;;;;;;;;;;5093056;28;20044;-75
2020/12/29 04:17:09;;;;;;;10.73;7.32;;;;;;;;;;5094131;28;20133;-75
2020/12/29 04:19:34;;;;;;;9.10;7.10;;;;;;;;;;5096031;28;20126;-76
2020/12/29 04:22:00;;;;;;;9.30;7.32;;;;;;;;;;5097059;28;20130;-75
2020/12/29 04:24:25;;;;;;;9.45;7.03;;;;;;;;;;5097177;28;20578;-76
2020/12/29 04:26:50;;;;;;;10.90;7.10;;;;;;;;;;5097180;28;20032;-76
2020/12/29 04:29:16;;;;;;;9.57;7.10;;;;;;;;;;5096990;28;20097;-76
2020/12/29 04:31:41;;;;;;;8.77;7.10;;;;;;;;;;5095871;28;20032;-76
2020/12/29 04:34:06;;;;;;;10.95;6.82;;;;;;;;;;5097016;28;20032;-75
2020/12/29 04:36:33;;;;;;;9.25;7.00;;;;;;;;;;5095769;28;20127;-76
2020/12/29 04:38:59;;;;;;;9.27;7.13;;;;;;;;;;5096818;28;20512;-76
2020/12/29 04:41:25;;;;;;;8.65;6.18;;;;;;;;;;5097027;28;20083;-75
2020/12/29 04:43:55;;;;;;;7.78;6.28;;;;;;;;;;5096633;28;20143;-74
2020/12/29 04:46:21;;;;;;;9.48;6.50;;;;;;;;;;5096723;28;20416;-75
2020/12/29 04:48:46;;;;;;;8.63;6.70;;;;;;;;;;5096578;28;20028;-75
2020/12/29 04:51:15;;;;;;;8.20;6.85;;;;;;;;;;5095758;28;20420;-75
2020/12/29 04:53:54;;;;;;;8.40;6.10;;;;;;;;;;5096718;28;20032;-75
2020/12/29 04:56:24;;;;;;;11.07;7.35;;;;;;;;;;5095188;28;20036;-75
2020/12/29 04:58:50;;;;;;;8.45;6.72;;;;;;;;;;5096541;28;20048;-75
2020/12/29 05:01:18;;;;;;;10.43;8.02;;;;;;;;;;5096597;28;20032;-75
2020/12/29 05:03:46;;;;;;;9.80;6.55;;;;;;;;;;5095390;28;20489;-75
2020/12/29 05:06:12;;;;;;;8.48;6.85;;;;;;;;;;5096374;28;20056;-75
2020/12/29 05:08:48;;;;;;;9.88;7.60;;;;;;;;;;5096323;28;20028;-75
2020/12/29 05:11:14;;;;;;;12.18;7.30;;;;;;;;;;5096333;28;20030;-75
2020/12/29 05:13:40;;;;;;;11.50;7.28;;;;;;;;;;5095043;28;20122;-75
2020/12/29 05:16:05;;;;;;;9.00;6.93;;;;;;;;;;5095025;28;20528;-75
2020/12/29 05:18:31;;;;;;;8.98;7.10;;;;;;;;;;5095252;28;20400;-75
2020/12/29 05:20:56;;;;;;;11.77;6.60;;;;;;;;;;5096192;28;20093;-75
2020/12/29 05:23:22;;;;;;;9.93;7.82;;;;;;;;;;5094661;28;20036;-75
2020/12/29 05:25:47;;;;;;;12.07;7.45;;;;;;;;;;5096118;28;20043;-76
2020/12/29 05:28:14;;;;;;;10.88;7.78;;;;;;;;;;5095347;28;20036;-76
2020/12/29 05:30:40;;;;;;;11.13;7.28;;;;;;;;;;5096026;28;20395;-75
2020/12/29 05:33:14;;;;;;;10.13;7.30;;;;;;;;;;5095760;28;20394;-75
2020/12/29 05:35:40;;;;;;;10.65;7.60;;;;;;;;;;5095071;28;20040;-75
2020/12/29 05:38:11;;;;;;;9.43;7.38;;;;;;;;;;5095769;28;20494;-75
2020/12/29 05:40:36;;;;;;;10.60;7.95;;;;;;;;;;5094756;28;20058;-75
2020/12/29 05:43:02;;;;;;;12.02;7.68;;;;;;;;;;5095314;28;20040;-75
2020/12/29 05:45:34;;;;;;;9.20;7.13;;;;;;;;;;5093975;28;20103;-75
2020/12/29 05:48:00;;;;;;;10.43;7.13;;;;;;;;;;5095464;28;20035;-75
2020/12/29 05:50:27;;;;;;;10.98;7.32;;;;;;;;;;5095621;28;20056;-75
2020/12/29 05:53:01;;;;;;;9.15;6.72;;;;;;;;;;5095476;28;20061;-75
2020/12/29 05:55:27;;;;;;;8.77;7.30;;;;;;;;;;5095562;28;20102;-75
2020/12/29 05:58:08;;;;;;;11.10;7.20;;;;;;;;;;5094318;28;20064;-75
2020/12/29 06:00:35;;;;;;;9.75;7.20;;;;;;;;;;5094939;28;20173;-75
2020/12/29 06:03:03;;;;;;;10.60;7.60;;;;;;;;;;5095258;28;20078;-75
2020/12/29 06:05:30;;;;;;;9.50;6.45;;;;;;;;;;5094056;28;20035;-75
2020/12/29 06:08:00;;;;;;;9.02;6.50;;;;;;;;;;5095232;28;20032;-75
2020/12/29 06:10:28;;;;;;;11.15;7.72;;;;;;;;;;5095225;28;20027;-75
2020/12/29 06:12:58;;;;;;;8.90;6.63;;;;;;;;;;5095076;28;20032;-75
2020/12/29 06:15:28;;;;;;;12.23;7.88;;;;;;;;;;5094896;28;20036;-75
2020/12/29 06:17:59;;;;;;;9.38;7.50;;;;;;;;;;5095056;28;20123;-75
2020/12/29 06:20:50;;;;;;;10.52;8.30;;;;;;;;;;5095259;28;20440;-75
2020/12/29 06:23:19;;;;;;;12.90;7.63;;;;;;;;;;5094948;28;20178;-75
2020/12/29 06:25:46;;;;;;;12.77;8.38;;;;;;;;;;5094900;28;20060;-75
2020/12/29 06:28:18;;;;;;;9.77;7.40;;;;;;;;;;5094586;28;20109;-75
2020/12/29 06:30:44;;;;;;;9.95;7.78;;;;;;;;;;5094618;28;20051;-75
2020/12/29 06:33:16;;;;;;;13.57;9.65;;;;;;;;;;5094476;28;20040;-75
2020/12/29 06:35:42;;;;;;;13.98;9.60;;;;;;;;;;5094711;28;20106;-75
2020/12/29 06:38:14;;;;;;;11.23;9.13;;;;;;;;;;5094333;28;20055;-75
2020/12/29 06:40:44;;;;;;;14.15;8.48;;;;;;;;;;5094515;28;20104;-75
2020/12/29 06:43:10;;;;;;;9.55;7.53;;;;;;;;;;5094543;28;20056;-75
2020/12/29 06:45:37;;;;;;;11.57;8.18;;;;;;;;;;5094564;28;20032;-75
2020/12/29 06:48:18;;;;;;;14.65;9.93;;;;;;;;;;5093483;28;20096;-75
2020/12/29 06:50:44;;;;;;;13.10;8.75;;;;;;;;;;5094236;28;20066;-75
2020/12/29 06:53:16;;;;;;;11.45;7.75;;;;;;;;;;5094137;28;20042;-75
2020/12/29 06:55:47;;;;;;;8.90;7.20;;;;;;;;;;5092676;28;20100;-75
2020/12/29 06:58:31;;;;;;;11.43;7.13;;;;;;;;;;5093993;28;20127;-74
2020/12/29 07:01:25;;;;;;;8.73;7.05;;;;;;;;;;5094045;28;20077;-74
2020/12/29 07:04:06;;;;;;;12.07;8.45;;;;;;;;;;5094380;28;20058;-74
2020/12/29 07:06:34;;;;;;;9.25;7.32;;;;;;;;;;5093993;28;20499;-73
2020/12/29 07:09:09;;;;;;;11.23;8.38;;;;;;;;;;5094009;28;20039;-73
2020/12/29 07:11:35;;;;;;;10.38;7.82;;;;;;;;;;5094121;28;20040;-73
2020/12/29 07:14:05;;;;;;;10.13;7.60;;;;;;;;;;5093680;28;20032;-74
2020/12/29 07:16:34;;;;;;;10.07;7.05;;;;;;;;;;5093758;28;20130;-73
2020/12/29 07:19:10;;;;;;;10.60;7.38;;;;;;;;;;5093914;28;20466;-74
2020/12/29 07:21:35;;;;;;;9.95;7.85;;;;;;;;;;5093455;28;20032;-74
2020/12/29 07:24:04;;;;;;;10.43;8.27;;;;;;;;;;5093782;28;20043;-73
2020/12/29 07:26:36;;;;;;;10.38;7.60;;;;;;;;;;5093467;28;20544;-72
2020/12/29 07:29:02;;;;;;;9.57;7.50;;;;;;;;;;5092345;28;20032;-73
2020/12/29 07:31:27;;;;;;;11.05;7.90;;;;;;;;;;5093584;28;20028;-74
2020/12/29 07:33:54;;;;;;;9.68;7.28;;;;;;;;;;5093240;28;20225;-73
2020/12/29 07:36:21;;;;;;;10.85;8.02;;;;;;;;;;5093887;28;20047;-72
2020/12/29 07:38:48;;;;;;;9.38;7.82;;;;;;;;;;5093258;28;20036;-73
2020/12/29 07:41:17;;;;;;;11.32;9.25;;;;;;;;;;5093491;28;20114;-73
2020/12/29 07:43:46;;;;;;;9.90;8.00;;;;;;;;;;5093346;28;20052;-73
2020/12/29 07:46:13;;;;;;;11.48;8.38;;;;;;;;;;5092023;28;20024;-73
2020/12/29 07:48:39;;;;;;;9.48;7.82;;;;;;;;;;5092784;28;20034;-72
2020/12/29 07:51:05;;;;;;;10.27;8.13;;;;;;;;;;5092977;28;20383;-72
2020/12/29 07:53:31;;;;;;;10.32;7.93;;;;;;;;;;5093307;28;20442;-73
2020/12/29 07:55:57;;;;;;;10.13;7.85;;;;;;;;;;5092036;28;20040;-73
2020/12/29 07:58:23;;;;;;;11.13;8.10;;;;;;;;;;5093322;28;20076;-72
2020/12/29 08:00:48;;;;;;;10.50;8.23;;;;;;;;;;5093468;28;20078;-73
2020/12/29 08:03:15;;;;;;;12.00;8.50;;;;;;;;;;5093310;28;20135;-71
2020/12/29 08:05:41;;;;;;;9.55;7.57;;;;;;;;;;5093409;28;20115;-71
2020/12/29 08:08:11;;;;;;;10.05;7.45;;;;;;;;;;5093102;28;20107;-72
2020/12/29 08:10:38;;;;;;;10.38;7.80;;;;;;;;;;5093214;28;20042;-72
2020/12/29 08:13:09;;;;;;;8.55;7.07;;;;;;;;;;5093194;28;20438;-72
2020/12/29 08:15:37;;;;;;;12.38;7.32;;;;;;;;;;5093238;28;20036;-72
2020/12/29 08:18:11;;;;;;;11.57;7.75;;;;;;;;;;5093078;28;20485;-73
2020/12/29 08:20:50;;;;;;;9.88;7.38;;;;;;;;;;5091462;28;20068;-72
2020/12/29 08:23:20;;;;;;;11.10;7.22;;;;;;;;;;5093180;28;20028;-73
2020/12/29 08:25:53;;;;;;;9.98;7.32;;;;;;;;;;5093121;28;20063;-74
2020/12/29 08:28:35;;;;;;;8.68;6.82;;;;;;;;;;5092109;28;20466;-74
2020/12/29 08:31:01;;;;;;;10.60;6.70;;;;;;;;;;5093120;28;20039;-73
2020/12/29 08:33:29;;;;;;;9.52;6.88;;;;;;;;;;5092619;28;20028;-73
2020/12/29 08:35:56;;;;;;;7.95;6.32;;;;;;;;;;5093002;28;20097;-74
2020/12/29 08:38:41;;;;;;;9.85;7.38;;;;;;;;;;5093138;28;20036;-74
2020/12/29 08:41:10;;;;;;;13.40;8.68;;;;;;;;;;5092870;28;20059;-74
2020/12/29 08:43:43;;;;;;;12.25;8.07;;;;;;;;;;5092747;28;20052;-73
2020/12/29 08:46:11;;;;;;;12.27;8.05;;;;;;;;;;5090831;28;20465;-76
2020/12/29 08:48:36;;;;;;;12.15;9.45;;;;;;;;;;5092935;28;20036;-74
2020/12/29 08:51:20;;;;;;;11.45;9.13;;;;;;;;;;5082321;28;20099;-75
2020/12/29 08:53:45;;;;;;;11.88;8.57;;;;;;;;;;5083385;28;20032;-77
2020/12/29 08:56:22;;;;;;;13.68;8.90;;;;;;;;;;5078780;28;20012;-79
2020/12/29 08:58:48;;;;;;;18.08;11.18;;;;;;;;;;5085067;28;20040;-78
2020/12/29 09:01:33;;;;;;;28.88;17.08;;;;;;;;;;5093160;28;20055;-77
2020/12/29 09:04:23;;;;;;;25.80;16.00;;;;;;;;;;5094505;28;20040;-77
2020/12/29 09:06:59;;;;;;;23.67;13.80;;;;;;;;;;5096353;28;20390;-76
2020/12/29 09:09:25;;;;;;;17.40;12.45;;;;;;;;;;5095650;28;20090;-78
2020/12/29 09:12:04;;;;;;;17.92;11.85;;;;;;;;;;5096403;28;20040;-76
2020/12/29 09:14:30;;;;;;;18.67;12.73;;;;;;;;;;5095185;28;20064;-77
2020/12/29 09:17:03;;;;;;;17.42;12.57;;;;;;;;;;5097808;28;20449;-74
2020/12/29 09:19:29;;;;;;;19.00;12.43;;;;;;;;;;5096185;28;20558;-77
2020/12/29 09:22:15;;;;;;;16.60;10.98;;;;;;;;;;5095387;28;20194;-76
2020/12/29 09:24:51;;;;;;;;;;;;;;;;;;5095227;28;20036;-77
2020/12/29 09:27:30;;;;;;;17.02;11.15;;;;;;;;;;5094573;28;19912;-76
2020/12/29 09:29:57;;;;;;;15.75;10.68;;;;;;;;;;5095990;28;20131;-76
2020/12/29 09:32:23;;;;;;;17.42;11.23;;;;;;;;;;5094667;28;20504;-76
2020/12/29 09:34:50;;;;;;;15.27;11.02;;;;;;;;;;5095757;28;20417;-76
2020/12/29 09:37:16;;;;;;;17.50;11.88;;;;;;;;;;5095803;28;20465;-76
2020/12/29 09:39:42;;;;;;;16.38;10.88;;;;;;;;;;5094368;28;20043;-76
2020/12/29 09:42:07;;;;;;;15.18;10.65;;;;;;;;;;5095936;28;20036;-76
2020/12/29 09:44:32;;;;;;;15.15;10.70;;;;;;;;;;5095757;28;20170;-75
2020/12/29 09:46:58;;;;;;;12.35;8.88;;;;;;;;;;5094667;28;20151;-76
2020/12/29 09:49:23;;;;;;;12.18;9.32;;;;;;;;;;5095688;28;20036;-76
2020/12/29 09:51:54;;;;;;;11.70;8.57;;;;;;;;;;5095467;28;20032;-76
2020/12/29 09:54:20;;;;;;;11.90;9.15;;;;;;;;;;5095477;28;20038;-76
2020/12/29 09:56:46;;;;;;;11.90;8.50;;;;;;;;;;5095319;28;20036;-75
2020/12/29 09:59:11;;;;;;;12.93;8.93;;;;;;;;;;5094245;28;20130;-75
2020/12/29 10:01:36;;;;;;;14.20;9.20;;;;;;;;;;5095488;28;20427;-75
2020/12/29 10:04:02;;;;;;;12.32;9.23;;;;;;;;;;5095594;28;20032;-75
2020/12/29 10:06:27;;;;;;;15.95;10.43;;;;;;;;;;5095056;28;20027;-75
2020/12/29 10:08:52;;;;;;;14.55;9.88;;;;;;;;;;5094787;28;20086;-75
2020/12/29 10:11:18;;;;;;;15.10;10.45;;;;;;;;;;5095058;28;20432;-75
2020/12/29 10:13:43;;;;;;;15.50;10.63;;;;;;;;;;5077152;28;20036;-75
2020/12/29 10:16:09;;;;;;;17.67;11.02;;;;;;;;;;5094727;28;20032;-75
2020/12/29 10:18:34;;;;;;;15.30;10.77;;;;;;;;;;5095119;28;20035;-75
2020/12/29 10:21:00;;;;;;;14.52;10.48;;;;;;;;;;5095053;28;20043;-76
2020/12/29 10:23:25;;;;;;;15.32;10.88;;;;;;;;;;5094226;28;20094;-75
2020/12/29 10:25:51;;;;;;;17.75;12.70;;;;;;;;;;5095143;28;20044;-75
2020/12/29 10:28:16;;;;;;;17.30;12.55;;;;;;;;;;5094937;28;20032;-75
2020/12/29 10:30:42;;;;;;;15.40;10.85;;;;;;;;;;5094885;28;20040;-77
2020/12/29 10:33:07;;;;;;;15.25;11.15;;;;;;;;;;5094066;28;20035;-76
2020/12/29 10:35:33;;;;;;;14.25;10.75;;;;;;;;;;5094783;28;20040;-76
2020/12/29 10:37:58;;;;;;;17.27;12.18;;;;;;;;;;5094899;28;20036;-76
2020/12/29 10:40:24;;;;;;;15.82;11.70;;;;;;;;;;5094566;28;20086;-76
2020/12/29 10:42:49;;;;;;;16.85;11.73;;;;;;;;;;5094784;28;20073;-74
2020/12/29 10:45:14;;;;;;;16.67;11.20;;;;;;;;;;5094723;28;20031;-75
2020/12/29 10:47:40;;;;;;;15.55;11.82;;;;;;;;;;5094714;28;20028;-75
2020/12/29 10:50:05;;;;;;;16.23;11.98;;;;;;;;;;5092672;28;20036;-75
2020/12/29 10:52:30;;;;;;;17.13;10.65;;;;;;;;;;5094571;28;20036;-75
2020/12/29 10:54:56;;;;;;;15.85;11.98;;;;;;;;;;5094224;28;20120;-75
2020/12/29 10:57:21;;;;;;;16.88;12.10;;;;;;;;;;5093941;28;20105;-77
2020/12/29 10:59:50;;;;;;;16.38;12.00;;;;;;;;;;5093609;28;20509;-76
2020/12/29 11:02:15;;;;;;;16.33;10.90;;;;;;;;;;5093488;28;20162;-76
2020/12/29 11:04:41;;;;;;;14.27;10.77;;;;;;;;;;5089406;28;20070;-76
2020/12/29 11:07:06;;;;;;;11.95;9.73;;;;;;;;;;5082593;28;20033;-76
2020/12/29 11:09:32;;;;;;;11.80;8.50;;;;;;;;;;5081883;28;20047;-75
2020/12/29 11:11:57;;;;;;;11.57;8.50;;;;;;;;;;5083635;28;20028;-75
2020/12/29 11:14:22;;;;;;;13.60;10.07;;;;;;;;;;5093255;28;20035;-76
2020/12/29 11:16:49;;;;;;;8.50;6.88;;;;;;;;;;5090741;28;20036;-74
2020/12/29 11:19:14;;;;;;;7.88;6.70;;;;;;;;;;5092984;28;20039;-73
2020/12/29 11:21:39;;;;;;;8.73;5.93;;;;;;;;;;5094235;28;20027;-75
2020/12/29 11:24:05;;;;;;;7.90;5.85;;;;;;;;;;5093940;28;20485;-77
2020/12/29 11:26:30;;;;;;;8.68;5.97;;;;;;;;;;5093198;28;20028;-75
2020/12/29 11:28:56;;;;;;;9.00;6.00;;;;;;;;;;5092681;28;20474;-74
2020/12/29 11:31:21;;;;;;;6.75;5.50;;;;;;;;;;5094036;28;20112;-74
2020/12/29 11:33:47;;;;;;;6.03;5.15;;;;;;;;;;5093940;28;20123;-74
2020/12/29 11:36:17;;;;;;;7.35;5.50;;;;;;;;;;5093670;28;20036;-73
2020/12/29 11:38:43;;;;;;;5.80;4.55;;;;;;;;;;5093513;28;20504;-73
2020/12/29 11:41:09;;;;;;;5.20;4.22;;;;;;;;;;5093581;28;20040;-73
2020/12/29 11:43:34;;;;;;;6.38;4.63;;;;;;;;;;5093503;28;20052;-72
2020/12/29 11:46:04;;;;;;;5.72;4.18;;;;;;;;;;5092714;28;20048;-73
2020/12/29 11:48:29;;;;;;;5.88;4.28;;;;;;;;;;5093757;28;20031;-76
2020/12/29 11:50:55;;;;;;;7.97;4.75;;;;;;;;;;5093418;28;20557;-75
2020/12/29 11:53:20;;;;;;;6.20;4.13;;;;;;;;;;5093531;28;20111;-74
2020/12/29 11:55:46;;;;;;;4.82;3.75;;;;;;;;;;5092137;28;20465;-74
2020/12/29 11:58:11;;;;;;;5.32;4.15;;;;;;;;;;5092100;28;20477;-75
2020/12/29 12:00:36;;;;;;;5.70;4.20;;;;;;;;;;5093606;28;20473;-76
2020/12/29 12:03:02;;;;;;;7.15;3.72;;;;;;;;;;5093389;28;20036;-75
2020/12/29 12:05:28;;;;;;;4.90;3.30;;;;;;;;;;5093104;28;20039;-75
2020/12/29 12:07:53;;;;;;;6.05;4.05;;;;;;;;;;5093232;28;20040;-76
2020/12/29 12:10:18;;;;;;;7.97;4.15;;;;;;;;;;5093196;28;20036;-75
2020/12/29 12:12:44;;;;;;;7.15;4.20;;;;;;;;;;5091941;28;20063;-76
2020/12/29 12:15:09;;;;;;;4.90;3.47;;;;;;;;;;5091894;28;20044;-75
2020/12/29 12:17:36;;;;;;;5.40;3.60;;;;;;;;;;5092589;28;20024;-75
2020/12/29 12:20:02;;;;;;;10.57;3.67;;;;;;;;;;5075745;28;20042;-74
2020/12/29 12:22:28;;;;;;;6.00;3.55;;;;;;;;;;5072680;28;20098;-74
2020/12/29 12:24:53;;;;;;;6.75;3.50;;;;;;;;;;5072751;28;20036;-75
2020/12/29 12:27:19;;;;;;;6.15;3.13;;;;;;;;;;5072744;28;20121;-73
2020/12/29 12:29:44;;;;;;;6.25;3.42;;;;;;;;;;5072912;28;20044;-74
2020/12/29 12:32:09;;;;;;;7.40;3.97;;;;;;;;;;5071531;28;20040;-74
2020/12/29 12:34:36;;;;;;;6.35;4.00;;;;;;;;;;5072494;28;20033;-75
2020/12/29 12:37:02;;;;;;;12.23;5.30;;;;;;;;;;5072686;28;20090;-75
2020/12/29 12:39:27;;;;;;;8.27;3.33;;;;;;;;;;5074733;28;20044;-75
2020/12/29 12:41:52;;;;;;;5.97;2.50;;;;;;;;;;5076636;28;20044;-72
2020/12/29 12:44:18;;;;;;;4.38;2.22;;;;;;;;;;5075160;28;20110;-73
2020/12/29 12:46:44;;;;;;;5.32;2.15;;;;;;;;;;5087045;28;20443;-74
2020/12/29 12:49:10;;;;;;;4.25;2.40;;;;;;;;;;5096619;28;20096;-74
2020/12/29 12:51:36;;;;;;;5.13;1.70;;;;;;;;;;5084023;28;20066;-75
2020/12/29 12:54:01;;;;;;;2.30;1.60;;;;;;;;;;5089869;28;20036;-76
2020/12/29 12:56:30;;;;;;;3.15;1.50;;;;;;;;;;5083291;28;20040;-77
2020/12/29 12:58:57;;;;;;;3.25;1.40;;;;;;;;;;5078890;28;20206;-81
2020/12/29 13:01:23;;;;;;;5.70;1.60;;;;;;;;;;5089619;28;20050;-82
2020/12/29 13:03:48;;;;;;;3.38;1.25;;;;;;;;;;5102304;28;20032;-79
2020/12/29 13:06:26;;;;;;;4.00;1.70;;;;;;;;;;5102863;28;20028;-82
2020/12/29 13:08:53;;;;;;;3.08;1.35;;;;;;;;;;5094635;28;20037;-79
2020/12/29 13:11:18;;;;;;;3.65;1.83;;;;;;;;;;5087291;28;20393;-80
2020/12/29 13:13:44;;;;;;;3.65;1.42;;;;;;;;;;5093816;28;20044;-81
2020/12/29 13:16:09;;;;;;;3.55;1.55;;;;;;;;;;5098343;28;20071;-81
2020/12/29 13:18:35;;;;;;;5.18;1.80;;;;;;;;;;5100772;28;20036;-80
2020/12/29 13:21:00;;;;;;;1.80;1.20;;;;;;;;;;5079187;28;20045;-75
2020/12/29 13:23:26;;;;;;;1.98;1.33;;;;;;;;;;5086550;28;20032;-71
2020/12/29 13:25:51;;;;;;;5.45;1.77;;;;;;;;;;5081147;28;20462;-72
2020/12/29 13:28:16;;;;;;;4.15;1.40;;;;;;;;;;5075703;28;20106;-72
2020/12/29 13:30:42;;;;;;;4.03;1.33;;;;;;;;;;5075858;28;20036;-72
2020/12/29 13:33:07;;;;;;;4.32;1.20;;;;;;;;;;5075508;28;20139;-73
2020/12/29 13:35:34;;;;;;;5.68;1.35;;;;;;;;;;5075314;28;20044;-73
2020/12/29 13:37:59;;;;;;;3.20;1.30;;;;;;;;;;5075306;28;20033;-74
2020/12/29 13:40:24;;;;;;;3.70;1.40;;;;;;;;;;5074995;28;20390;-74
2020/12/29 13:42:50;;;;;;;2.45;1.15;;;;;;;;;;5074734;28;20044;-74
2020/12/29 13:45:15;;;;;;;6.05;1.67;;;;;;;;;;5078636;28;20036;-73
2020/12/29 13:47:41;;;;;;;4.25;1.58;;;;;;;;;;5094817;28;20040;-73
2020/12/29 13:50:06;;;;;;;2.97;1.70;;;;;;;;;;5094184;28;20028;-73
2020/12/29 13:52:32;;;;;;;3.05;1.67;;;;;;;;;;5094995;28;20044;-73
2020/12/29 13:54:57;;;;;;;4.00;1.70;;;;;;;;;;5094733;28;20106;-73
2020/12/29 13:57:24;;;;;;;4.40;2.33;;;;;;;;;;5094894;28;20051;-74
2020/12/29 13:59:49;;;;;;;5.03;1.60;;;;;;;;;;5093883;28;20481;-73
2020/12/29 14:02:15;;;;;;;3.47;1.70;;;;;;;;;;5094592;28;20040;-74
2020/12/29 14:04:40;;;;;;;9.55;1.88;;;;;;;;;;5093707;28;20032;-74
2020/12/29 14:07:05;;;;;;;7.78;1.90;;;;;;;;;;5094485;28;20043;-74
2020/12/29 14:09:31;;;;;;;4.70;2.03;;;;;;;;;;5094568;28;20032;-74
2020/12/29 14:11:56;;;;;;;3.30;1.80;;;;;;;;;;5093640;28;20036;-73
2020/12/29 14:14:22;;;;;;;6.13;1.58;;;;;;;;;;5094386;28;20036;-73
2020/12/29 14:16:57;;;;;;;5.45;1.90;;;;;;;;;;5094429;28;20450;-74
2020/12/29 14:19:22;;;;;;;4.25;2.10;;;;;;;;;;5094270;28;20394;-73
2020/12/29 14:21:49;;;;;;;6.47;2.10;;;;;;;;;;5093227;28;20039;-74
2020/12/29 14:24:18;;;;;;;5.05;2.17;;;;;;;;;;5094326;28;20047;-74
2020/12/29 14:26:48;;;;;;;3.42;1.90;;;;;;;;;;5094336;28;20504;-74
2020/12/29 14:29:14;;;;;;;5.22;2.10;;;;;;;;;;5094175;28;20036;-74
2020/12/29 14:31:47;;;;;;;4.10;1.88;;;;;;;;;;5093185;28;20067;-74
2020/12/29 14:34:13;;;;;;;7.47;2.03;;;;;;;;;;5093986;28;20118;-74
2020/12/29 14:36:38;;;;;;;4.80;2.20;;;;;;;;;;5094050;28;20131;-73